createdAt,value
2023-03-20T00:02:22.230Z,12.80
2023-03-20T00:04:50.609Z,12.50
2023-03-20T00:07:18.823Z,12.83
2023-03-20T00:09:49.461Z,12.54
2023-03-20T00:12:25.001Z,12.71
2023-03-20T00:14:53.597Z,12.83
2023-03-20T00:17:22.822Z,12.50
2023-03-20T00:19:51.480Z,12.71
2023-03-20T00:22:19.750Z,12.65
2023-03-20T00:24:49.601Z,12.69
2023-03-20T00:27:19.358Z,12.43
2023-03-20T00:29:47.648Z,12.80
2023-03-20T00:32:16.869Z,12.96
2023-03-20T00:34:45.169Z,12.82
2023-03-20T00:37:13.560Z,12.74
2023-03-20T00:39:42.584Z,12.97
2023-03-20T00:42:21.853Z,12.65
2023-03-20T00:44:54.163Z,13.03
2023-03-20T00:47:25.118Z,12.95
2023-03-20T00:49:56.108Z,13.03
2023-03-20T00:52:25.506Z,13.13
2023-03-20T00:54:53.805Z,12.84
2023-03-20T00:57:26.684Z,13.14
2023-03-20T00:59:59.234Z,12.98
2023-03-20T01:02:31.225Z,13.24
2023-03-20T01:05:00.232Z,13.17
2023-03-20T01:07:28.899Z,13.05
2023-03-20T01:09:57.307Z,13.09
2023-03-20T01:12:27.366Z,13.06
2023-03-20T01:14:58.771Z,12.96
2023-03-20T01:17:29.377Z,13.03
2023-03-20T01:19:57.706Z,13.07
2023-03-20T01:22:26.310Z,13.05
2023-03-20T01:24:54.573Z,13.22
2023-03-20T01:27:23.722Z,12.99
2023-03-20T01:29:53.662Z,13.26
2023-03-20T01:32:21.924Z,12.68
2023-03-20T01:34:50.183Z,12.85
2023-03-20T01:37:27.224Z,12.59
2023-03-20T01:39:57.279Z,13.07
2023-03-20T01:42:26.061Z,12.50
2023-03-20T01:44:56.022Z,12.91
2023-03-20T01:47:27.801Z,12.53
2023-03-20T01:50:32.552Z,12.52
2023-03-20T01:53:11.141Z,12.67
2023-03-20T01:55:42.030Z,12.51
2023-03-20T01:58:17.860Z,12.84
2023-03-20T02:00:50.021Z,12.19
2023-03-20T02:03:19.842Z,12.52
2023-03-20T02:05:49.573Z,12.39
2023-03-20T02:08:25.344Z,12.31
2023-03-20T02:10:54.867Z,12.67
2023-03-20T02:13:24.039Z,12.38
2023-03-20T02:16:14.157Z,11.75
2023-03-20T02:18:47.495Z,12.13
2023-03-20T02:22:08.707Z,12.29
2023-03-20T02:25:25.182Z,12.65
2023-03-20T02:28:36.266Z,12.56
2023-03-20T02:31:47.236Z,12.31
2023-03-20T02:34:57.554Z,12.00
2023-03-20T02:37:48.913Z,12.29
2023-03-20T02:40:31.879Z,12.05
2023-03-20T02:43:11.491Z,12.40
2023-03-20T02:45:49.797Z,12.22
2023-03-20T02:48:31.735Z,12.31
2023-03-20T02:51:06.973Z,11.99
2023-03-20T02:53:50.592Z,12.11
2023-03-20T02:56:27.837Z,11.35
2023-03-20T02:59:09.037Z,11.85
2023-03-20T03:01:42.683Z,12.30
2023-03-20T03:04:17.811Z,11.92
2023-03-20T03:06:51.760Z,11.95
2023-03-20T03:09:25.155Z,12.30
2023-03-20T03:11:58.516Z,12.32
2023-03-20T03:14:36.938Z,12.35
2023-03-20T03:17:07.676Z,12.65
2023-03-20T03:19:39.952Z,12.28
2023-03-20T03:22:08.899Z,11.98
2023-03-20T03:24:44.152Z,12.41
2023-03-20T03:27:21.416Z,11.86
2023-03-20T03:29:56.693Z,12.17
2023-03-20T03:32:28.795Z,11.82
2023-03-20T03:34:58.255Z,12.13
2023-03-20T03:37:42.222Z,12.23
2023-03-20T03:40:33.379Z,11.39
2023-03-20T03:43:07.753Z,12.00
2023-03-20T03:45:41.934Z,11.88
2023-03-20T03:48:16.260Z,11.56
2023-03-20T03:50:49.757Z,11.72
2023-03-20T03:53:23.786Z,11.71
2023-03-20T03:55:59.313Z,11.26
2023-03-20T03:58:33.109Z,11.68
2023-03-20T04:01:03.990Z,11.96
2023-03-20T04:03:37.841Z,11.71
2023-03-20T04:06:10.052Z,12.09
2023-03-20T04:08:38.389Z,12.09
2023-03-20T04:11:08.912Z,11.89
2023-03-20T04:13:37.733Z,12.35
2023-03-20T04:16:07.572Z,11.72
2023-03-20T04:18:36.032Z,11.71
2023-03-20T04:21:06.281Z,12.06
2023-03-20T04:23:34.627Z,11.85
2023-03-20T04:26:03.734Z,12.22
2023-03-20T04:28:35.379Z,11.80
2023-03-20T04:31:04.422Z,11.66
2023-03-20T04:33:32.904Z,11.49
2023-03-20T04:36:01.669Z,12.10
2023-03-20T04:38:30.229Z,12.00
2023-03-20T04:40:58.829Z,12.02
2023-03-20T04:43:27.337Z,11.91
2023-03-20T04:45:57.136Z,11.89
2023-03-20T04:48:27.818Z,11.86
2023-03-20T04:50:56.805Z,11.31
2023-03-20T04:53:27.139Z,11.64
2023-03-20T04:55:55.623Z,12.08
2023-03-20T04:58:23.911Z,11.78
2023-03-20T05:00:52.806Z,11.86
2023-03-20T05:03:24.124Z,11.68
2023-03-20T05:05:53.402Z,11.62
2023-03-20T05:08:21.783Z,11.32
2023-03-20T05:10:50.636Z,11.72
2023-03-20T05:13:19.216Z,11.65
2023-03-20T05:15:47.907Z,12.14
2023-03-20T05:18:16.430Z,12.14
2023-03-20T05:20:46.508Z,11.27
2023-03-20T05:23:15.161Z,11.85
2023-03-20T05:25:43.964Z,11.57
2023-03-20T05:28:12.352Z,11.80
2023-03-20T05:30:41.727Z,11.86
2023-03-20T05:33:10.106Z,12.07
2023-03-20T05:35:38.874Z,11.01
2023-03-20T05:38:09.358Z,11.89
2023-03-20T05:40:37.791Z,11.70
2023-03-20T05:43:06.243Z,11.99
2023-03-20T05:45:34.743Z,11.46
2023-03-20T05:48:03.286Z,11.86
2023-03-20T05:50:32.082Z,11.89
2023-03-20T05:53:01.050Z,12.01
2023-03-20T05:55:31.153Z,11.90
2023-03-20T05:58:00.364Z,11.89
2023-03-20T06:00:29.348Z,11.98
2023-03-20T06:02:57.859Z,11.17
2023-03-20T06:05:26.313Z,10.89
2023-03-20T06:07:54.756Z,11.16
2023-03-20T06:10:23.306Z,11.53
2023-03-20T06:12:53.326Z,11.79
2023-03-20T06:15:22.218Z,11.56
2023-03-20T06:17:50.555Z,11.82
2023-03-20T06:20:20.211Z,11.20
2023-03-20T06:22:49.403Z,12.06
2023-03-20T06:25:18.327Z,11.93
2023-03-20T06:27:48.979Z,11.57
2023-03-20T06:30:19.449Z,11.69
2023-03-20T06:32:59.493Z,11.66
2023-03-20T06:35:31.282Z,11.17
2023-03-20T06:38:00.024Z,11.33
2023-03-20T06:40:28.920Z,11.55
2023-03-20T06:42:57.792Z,11.49
2023-03-20T06:45:28.087Z,11.60
2023-03-20T06:47:56.835Z,12.19
2023-03-20T06:50:25.685Z,11.85
2023-03-20T06:52:54.063Z,11.89
2023-03-20T06:55:22.661Z,11.86
2023-03-20T06:57:51.254Z,11.31
2023-03-20T07:00:21.698Z,12.22
2023-03-20T07:02:53.533Z,11.66
2023-03-20T07:05:23.231Z,11.96
2023-03-20T07:10:37.821Z,12.16
2023-03-20T07:13:10.555Z,12.22
2023-03-20T07:15:45.699Z,12.21
2023-03-20T07:18:21.042Z,12.01
2023-03-20T07:20:50.185Z,12.14
2023-03-20T07:23:19.369Z,11.63
2023-03-20T07:25:48.937Z,11.98
2023-03-20T07:28:17.781Z,11.60
2023-03-20T07:30:46.450Z,11.88
2023-03-20T07:33:15.611Z,12.35
2023-03-20T07:35:46.693Z,11.52
2023-03-20T07:38:15.304Z,12.49
2023-03-20T07:40:43.810Z,11.74
2023-03-20T07:43:12.413Z,12.16
2023-03-20T07:45:40.963Z,11.98
2023-03-20T07:48:09.867Z,11.79
2023-03-20T07:50:38.325Z,11.93
2023-03-20T07:53:08.446Z,12.31
2023-03-20T07:55:37.213Z,12.16
2023-03-20T07:58:06.447Z,11.88
2023-03-20T08:00:34.841Z,12.24
2023-03-20T08:03:04.182Z,11.72
2023-03-20T08:05:32.812Z,12.15
2023-03-20T08:08:01.381Z,12.29
2023-03-20T08:10:31.690Z,12.62
2023-03-20T08:13:00.014Z,12.74
2023-03-20T08:15:28.391Z,12.69
2023-03-20T08:17:58.854Z,12.43
2023-03-20T08:20:27.549Z,12.67
2023-03-20T08:22:55.966Z,12.46
2023-03-20T08:25:24.485Z,12.56
2023-03-20T08:27:54.703Z,12.57
2023-03-20T08:30:23.118Z,11.75
2023-03-20T08:32:51.466Z,12.57
2023-03-20T08:35:32.589Z,12.50
2023-03-20T08:38:02.833Z,12.66
2023-03-20T08:40:32.103Z,12.37
2023-03-20T08:43:01.659Z,12.83
2023-03-20T08:45:29.870Z,12.46
2023-03-20T08:47:58.532Z,12.54
2023-03-20T08:50:28.236Z,12.39
2023-03-20T08:52:56.925Z,12.35
2023-03-20T08:55:25.302Z,12.65
2023-03-20T08:57:57.330Z,12.69
2023-03-20T09:00:27.716Z,12.62
2023-03-20T09:02:56.461Z,12.80
2023-03-20T09:05:25.099Z,12.81
2023-03-20T09:07:53.461Z,12.48
2023-03-20T09:10:21.995Z,12.74
2023-03-20T09:12:50.351Z,12.83
2023-03-20T09:15:18.775Z,12.51
2023-03-20T09:17:48.713Z,12.56
2023-03-20T09:20:17.743Z,12.90
2023-03-20T09:22:46.316Z,12.68
2023-03-20T09:25:15.387Z,12.49
2023-03-20T09:27:43.915Z,12.69
2023-03-20T09:30:15.148Z,12.43
2023-03-20T09:32:43.634Z,13.06
2023-03-20T09:35:13.465Z,12.62
2023-03-20T09:37:41.937Z,12.79
2023-03-20T09:40:21.110Z,12.30
2023-03-20T09:42:58.738Z,12.80
2023-03-20T09:45:46.670Z,12.89
2023-03-20T09:48:22.759Z,12.21
2023-03-20T09:51:04.337Z,13.16
2023-03-20T09:53:37.741Z,12.56
2023-03-20T09:56:11.853Z,13.50
2023-03-20T09:58:45.057Z,12.80
2023-03-20T10:01:17.008Z,13.10
2023-03-20T10:03:52.154Z,13.30
2023-03-20T10:06:22.076Z,13.13
2023-03-20T10:08:52.093Z,13.05
2023-03-20T10:11:48.618Z,12.80
2023-03-20T10:14:27.249Z,13.21
2023-03-20T10:17:14.228Z,12.73
2023-03-20T10:19:47.351Z,13.37
2023-03-20T10:22:25.988Z,13.13
2023-03-20T10:25:02.710Z,12.91
2023-03-20T10:27:39.518Z,13.11
2023-03-20T10:30:27.644Z,12.89
2023-03-20T10:33:11.101Z,12.89
2023-03-20T10:35:48.693Z,13.15
2023-03-20T10:38:38.291Z,12.86
2023-03-20T10:41:15.466Z,12.85
2023-03-20T10:43:47.455Z,13.10
2023-03-20T10:46:20.919Z,12.57
2023-03-20T10:48:53.368Z,13.15
2023-03-20T10:51:29.242Z,12.95
2023-03-20T10:54:05.166Z,13.02
2023-03-20T10:56:41.543Z,13.33
2023-03-20T10:59:24.846Z,12.90
2023-03-20T11:01:53.442Z,12.92
2023-03-20T11:04:22.423Z,12.74
2023-03-20T11:06:59.845Z,13.15
2023-03-20T11:09:31.445Z,12.41
2023-03-20T11:12:02.748Z,12.53
2023-03-20T11:14:37.505Z,12.83
2023-03-20T11:17:07.495Z,12.11
2023-03-20T11:19:38.352Z,12.42
2023-03-20T11:22:21.400Z,12.66
2023-03-20T11:24:55.196Z,12.92
2023-03-20T11:27:28.576Z,12.77
2023-03-20T11:29:59.622Z,12.36
2023-03-20T11:32:32.174Z,12.76
2023-03-20T11:35:24.946Z,12.92
2023-03-20T11:37:55.872Z,13.27
2023-03-20T11:40:32.006Z,13.09
2023-03-20T11:43:11.565Z,12.84
2023-03-20T11:45:43.236Z,12.57
2023-03-20T11:48:21.406Z,12.47
2023-03-20T11:51:03.944Z,12.79
2023-03-20T11:53:36.844Z,13.16
2023-03-20T11:56:12.062Z,12.52
2023-03-20T11:58:52.931Z,12.83
2023-03-20T12:01:23.346Z,13.03
2023-03-20T12:03:55.887Z,12.50
2023-03-20T12:06:27.706Z,12.67
2023-03-20T12:09:02.524Z,13.08
2023-03-20T12:11:48.464Z,12.67
2023-03-20T12:14:32.274Z,13.07
2023-03-20T12:17:35.283Z,13.23
2023-03-20T12:20:13.869Z,13.20
2023-03-20T12:22:54.281Z,12.77
2023-03-20T12:25:27.141Z,13.30
2023-03-20T12:28:08.736Z,13.44
2023-03-20T12:31:02.425Z,12.58
2023-03-20T12:33:43.277Z,13.00
2023-03-20T12:36:17.719Z,13.26
2023-03-20T12:38:46.926Z,13.20
2023-03-20T12:41:25.184Z,13.02
2023-03-20T12:44:25.354Z,12.99
2023-03-20T12:47:05.462Z,13.29
2023-03-20T12:49:44.776Z,13.02
2023-03-20T12:52:24.424Z,13.29
2023-03-20T12:55:33.615Z,13.05
2023-03-20T12:58:21.222Z,13.07
2023-03-20T13:01:04.024Z,12.60
2023-03-20T13:03:50.735Z,12.85
2023-03-20T13:06:27.509Z,13.28
2023-03-20T13:09:31.959Z,12.95
2023-03-20T13:12:09.630Z,12.84
2023-03-20T13:14:46.340Z,13.51
2023-03-20T13:17:26.181Z,13.23
2023-03-20T13:20:21.930Z,13.07
2023-03-20T13:23:11.277Z,13.31
2023-03-20T13:26:04.186Z,13.09
2023-03-20T13:28:42.905Z,13.33
2023-03-20T13:31:27.340Z,13.43
2023-03-20T13:34:07.255Z,12.65
2023-03-20T13:36:57.436Z,12.44
2023-03-20T13:39:34.839Z,13.44
2023-03-20T13:42:07.732Z,12.86
2023-03-20T13:44:37.058Z,13.00
2023-03-20T13:47:11.835Z,13.35
2023-03-20T13:49:50.819Z,13.22
2023-03-20T13:52:23.130Z,13.35
2023-03-20T13:55:14.759Z,13.29
2023-03-20T13:58:07.200Z,13.38
2023-03-20T14:00:45.362Z,13.68
2023-03-20T14:03:23.412Z,13.46
2023-03-20T14:05:53.294Z,13.69
2023-03-20T14:08:36.949Z,13.44
2023-03-20T14:11:16.838Z,13.35
2023-03-20T14:13:49.896Z,13.58
2023-03-20T14:16:20.853Z,13.29
2023-03-20T14:18:51.762Z,13.34
2023-03-20T14:21:25.703Z,13.15
2023-03-20T14:24:04.607Z,13.05
2023-03-20T14:26:38.505Z,13.16
2023-03-20T14:29:33.807Z,13.08
2023-03-20T14:32:52.852Z,12.84
2023-03-20T14:35:28.667Z,13.05
2023-03-20T14:38:37.179Z,13.03
2023-03-20T14:41:16.336Z,13.29
2023-03-20T14:44:02.196Z,13.14
2023-03-20T14:46:42.247Z,13.14
2023-03-20T14:49:44.907Z,13.44
2023-03-20T14:52:37.487Z,13.47
2023-03-20T14:55:35.786Z,13.15
2023-03-20T14:58:07.564Z,12.84
2023-03-20T15:00:47.821Z,13.52
2023-03-20T15:03:19.209Z,13.22
2023-03-20T15:05:49.211Z,12.83
2023-03-20T15:08:25.462Z,13.16
2023-03-20T15:10:58.771Z,13.26
2023-03-20T15:13:31.097Z,13.43
2023-03-20T15:16:07.038Z,12.83
2023-03-20T15:18:41.103Z,13.21
2023-03-20T15:21:18.701Z,13.16
2023-03-20T15:23:48.719Z,12.92
2023-03-20T15:26:25.426Z,13.16
2023-03-20T15:29:02.560Z,12.87
2023-03-20T15:31:33.501Z,12.94
2023-03-20T15:34:04.858Z,13.17
2023-03-20T15:36:37.109Z,13.11
2023-03-20T15:39:15.046Z,13.34
2023-03-20T15:41:51.718Z,13.26
2023-03-20T15:44:24.361Z,13.08
2023-03-20T15:46:57.834Z,13.28
2023-03-20T15:49:27.295Z,12.26
2023-03-20T15:52:04.237Z,12.90
2023-03-20T15:54:34.133Z,13.56
2023-03-20T15:57:05.426Z,13.20
2023-03-20T15:59:35.390Z,13.00
2023-03-20T16:02:04.894Z,13.03
2023-03-20T16:04:35.164Z,13.07
2023-03-20T16:07:04.169Z,13.12
2023-03-20T16:09:45.336Z,12.60
2023-03-20T16:12:18.811Z,13.08
2023-03-20T16:14:50.049Z,13.15
2023-03-20T16:17:21.331Z,12.66
2023-03-20T16:19:49.989Z,13.14
2023-03-20T16:22:25.820Z,13.13
2023-03-20T16:24:59.587Z,13.35
2023-03-20T16:27:34.024Z,13.44
2023-03-20T16:30:08.828Z,13.18
2023-03-20T16:32:41.762Z,13.45
2023-03-20T16:35:19.232Z,13.49
2023-03-20T16:37:56.382Z,13.67
2023-03-20T16:40:33.917Z,13.40
2023-03-20T16:43:14.953Z,13.60
2023-03-20T16:45:46.119Z,13.56
2023-03-20T16:48:32.330Z,13.21
2023-03-20T16:51:17.775Z,13.59
2023-03-20T16:53:48.720Z,13.12
2023-03-20T16:56:26.182Z,13.48
2023-03-20T16:58:57.275Z,13.78
2023-03-20T17:01:29.130Z,13.29
2023-03-20T17:03:59.894Z,13.36
2023-03-20T17:06:45.664Z,13.48
2023-03-20T17:09:24.052Z,13.69
2023-03-20T17:12:03.029Z,13.71
2023-03-20T17:14:34.119Z,13.63
2023-03-20T17:17:02.604Z,13.34
2023-03-20T17:19:34.150Z,13.67
2023-03-20T17:22:05.625Z,13.58
2023-03-20T17:24:34.264Z,13.38
2023-03-20T17:27:02.768Z,13.30
2023-03-20T17:29:32.682Z,13.49
2023-03-20T17:32:01.426Z,13.18
2023-03-20T17:34:30.072Z,13.32
2023-03-20T17:37:01.588Z,13.73
2023-03-20T17:39:30.496Z,13.64
2023-03-20T17:41:58.900Z,13.34
2023-03-20T17:44:28.190Z,13.24
2023-03-20T17:47:01.068Z,13.68
2023-03-20T17:49:30.163Z,13.70
2023-03-20T17:51:58.721Z,13.33
2023-03-20T17:54:28.457Z,13.49
2023-03-20T17:56:58.291Z,13.44
2023-03-20T17:59:30.986Z,13.38
2023-03-20T18:02:00.832Z,13.51
2023-03-20T18:04:32.064Z,14.03
2023-03-20T18:07:03.893Z,14.11
2023-03-20T18:09:33.705Z,13.95
2023-03-20T18:12:02.696Z,13.72
2023-03-20T18:14:31.050Z,13.94
2023-03-20T18:17:01.332Z,13.22
2023-03-20T18:19:31.340Z,13.66
2023-03-20T18:22:01.536Z,13.77
2023-03-20T18:24:30.308Z,13.70
2023-03-20T18:26:59.789Z,13.74
2023-03-20T18:29:29.251Z,13.63
2023-03-20T18:31:58.728Z,13.62
2023-03-20T18:34:29.111Z,13.82
2023-03-20T18:36:57.972Z,13.68
2023-03-20T18:39:28.775Z,13.93
2023-03-20T18:41:57.486Z,13.83
2023-03-20T18:44:25.958Z,13.93
2023-03-20T18:46:54.658Z,13.86
2023-03-20T18:49:23.220Z,13.90
2023-03-20T18:51:54.266Z,13.93
2023-03-20T18:54:22.841Z,13.89
2023-03-20T18:56:52.045Z,13.90
2023-03-20T18:59:21.274Z,13.69
2023-03-20T19:01:54.221Z,13.64
2023-03-20T19:04:23.719Z,13.56
2023-03-20T19:06:54.061Z,13.88
2023-03-20T19:09:22.660Z,14.18
2023-03-20T19:11:51.546Z,14.14
2023-03-20T19:14:20.262Z,13.67
2023-03-20T19:16:49.136Z,13.58
2023-03-20T19:19:17.804Z,13.51
2023-03-20T19:21:46.382Z,13.83
2023-03-20T19:24:18.321Z,13.43
2023-03-20T19:26:46.801Z,13.83
2023-03-20T19:29:15.612Z,13.81
2023-03-20T19:31:44.267Z,13.61
2023-03-20T19:34:38.918Z,13.94
2023-03-20T19:37:01.503Z,13.62
2023-03-20T19:39:32.790Z,13.68
2023-03-20T19:42:15.619Z,13.35
2023-03-20T19:44:50.045Z,13.75
2023-03-20T19:47:18.645Z,13.80
2023-03-20T19:49:47.295Z,13.75
2023-03-20T19:52:28.402Z,13.80
2023-03-20T19:55:03.550Z,13.49
2023-03-20T19:57:33.012Z,14.01
2023-03-20T20:00:47.187Z,13.61
2023-03-20T20:02:50.809Z,13.77
2023-03-20T20:05:28.689Z,13.78
2023-03-20T20:10:50.089Z,13.95
2023-03-20T20:13:21.270Z,13.80
2023-03-20T20:15:51.477Z,13.59
2023-03-20T20:18:21.998Z,13.93
2023-03-20T20:23:41.817Z,13.81
2023-03-20T20:26:11.899Z,13.73
2023-03-20T20:28:40.609Z,13.90
2023-03-20T20:31:09.401Z,13.84
2023-03-20T20:33:38.459Z,13.91
2023-03-20T20:36:57.669Z,13.65
2023-03-20T20:39:00.691Z,13.54
2023-03-20T20:41:31.258Z,13.44
2023-03-20T20:44:17.296Z,13.61
2023-03-20T20:46:46.768Z,13.62
2023-03-20T20:49:19.526Z,13.77
2023-03-20T20:51:48.977Z,13.53
2023-03-20T20:54:17.962Z,13.71
2023-03-20T20:56:47.802Z,13.76
2023-03-20T20:59:16.568Z,13.39
2023-03-20T21:01:45.094Z,13.53
2023-03-20T21:04:15.692Z,13.90
2023-03-20T21:07:08.148Z,13.75
2023-03-20T21:09:33.647Z,13.70
2023-03-20T21:12:08.238Z,13.47
2023-03-20T21:14:37.539Z,13.92
2023-03-20T21:17:06.939Z,13.81
2023-03-20T21:19:40.407Z,14.06
2023-03-20T21:22:12.193Z,13.78
2023-03-20T21:24:41.516Z,13.91
2023-03-20T21:27:17.452Z,13.71
2023-03-20T21:29:48.195Z,13.77
2023-03-20T21:32:19.930Z,13.67
2023-03-20T21:34:49.974Z,13.90
2023-03-20T21:38:22.862Z,14.02
2023-03-20T21:40:12.343Z,13.86
2023-03-20T21:42:43.153Z,14.08
2023-03-20T21:46:13.514Z,13.90
2023-03-20T21:48:42.455Z,14.06
2023-03-20T21:51:39.925Z,13.55
2023-03-20T21:54:46.058Z,13.95
2023-03-20T21:57:04.941Z,13.73
2023-03-20T21:59:55.055Z,13.91
2023-03-20T22:02:19.181Z,13.81
2023-03-20T22:05:34.843Z,13.73
2023-03-20T22:11:24.700Z,13.92
2023-03-20T22:17:06.440Z,13.90
2023-03-20T22:22:34.468Z,14.08
2023-03-20T22:25:20.344Z,13.85
2023-03-20T22:34:09.702Z,14.14
2023-03-20T22:42:24.263Z,13.85
2023-03-20T22:44:59.271Z,13.86
2023-03-20T22:47:14.826Z,13.91
2023-03-20T22:49:44.946Z,13.34
2023-03-20T22:52:29.240Z,13.81
2023-03-20T22:55:00.900Z,13.75
2023-03-20T22:57:42.115Z,13.79
2023-03-20T23:00:17.999Z,14.15
2023-03-20T23:02:47.636Z,13.81
2023-03-20T23:05:20.191Z,13.78
2023-03-20T23:07:48.847Z,14.00
2023-03-20T23:10:17.743Z,13.96
2023-03-20T23:12:46.411Z,13.94
2023-03-20T23:15:15.616Z,13.64
2023-03-20T23:17:47.040Z,13.92
2023-03-20T23:20:21.342Z,13.88
2023-03-20T23:22:50.970Z,13.98
2023-03-20T23:25:36.038Z,13.68
2023-03-20T23:28:07.635Z,13.88
2023-03-20T23:31:07.369Z,13.84
2023-03-20T23:33:24.883Z,14.05
2023-03-20T23:36:12.503Z,14.13
2023-03-20T23:38:46.070Z,13.90
2023-03-20T23:41:15.966Z,13.69
2023-03-20T23:43:45.170Z,14.10
2023-03-20T23:46:13.682Z,14.08
2023-03-20T23:48:42.649Z,13.83
2023-03-20T23:51:12.509Z,14.00
2023-03-20T23:53:41.180Z,13.87
2023-03-20T23:56:13.414Z,13.55
2023-03-20T23:58:51.136Z,13.79
